Terminal Aerodrome Forecast
Issued by NWS Flagstaff, AZ

Home | Current Version | Previous Version | Text Only | Print | Product List | Glossary On
Versions: 1 2 3 4 5 6 7 8 9 10 11 12 13 14 15 16 17 18 19 20
000
FTUS45 KFGZ 231100
TAFFLG
TAF
KFLG 231140Z 2312/2412 VRB03KT P6SM SCT028
      TEMPO 2312/2315 BKN022
     FM231800 23010G17KT P6SM SCT040
     FM240230 VRB03KT P6SM FEW040=

USA.gov is the U.S. government's official web portal to all federal, state and local government web resources and services.